Terminal Aerodrome Forecast
Issued by NWS

Home | Current Version | Previous Version | Text Only | Print | Product List | Glossary On
Versions: 1 2 3 4 5 6 7 8 9 10 11 12 13 14 15 16 17 18 19 20 21 22 23 24 25 26 27 28 29 30 31 32
488
FTUS41 KOKX 190817 AAB
TAFSWF
TAF AMD
KSWF 190817Z 1908/2012 VRB03KT P6SM SCT030 BKN040
      TEMPO 1908/1910 BKN030
     FM191200 26006KT P6SM FEW040 FEW200
     FM191500 27010KT P6SM FEW200
     FM191800 27010G18KT P6SM FEW150
     FM192300 22005KT P6SM SCT150
      AMD NOT SKED=

USA.gov is the U.S. government's official web portal to all federal, state and local government web resources and services.